This is the latest recevied weather packets stored in our database for station/object WB7AAV. If no packets are shown the sender has not sent any weather packets the latest 10 day(s).
| Time | Temp. | Humidity | Pressure | Rain* | Wind** | Luminosity | Snow |
|---|---|---|---|---|---|---|---|
| 1777396732 | 11.67° C | 55% | 1015.3 hPa | 0 mm | - | - | - |
| 1777394629 | 10.56° C | 58% | 1015.5 hPa | 0 mm | - | - | - |
| 1777393127 | 8.89° C | 64% | 1015.5 hPa | 0 mm | - | - | - |
| 1777389524 | 4.44° C | 94% | 1016 hPa | 0 mm | - | - | - |
| 1777388924 | 3.33° C | 94% | 1016.3 hPa | 0 mm | - | - | - |
| 1777388624 | 3.33° C | 95% | 1016.3 hPa | 0 mm | - | - | - |
| 1777387125 | 2.78° C | 95% | 1016.4 hPa | 0 mm | - | - | - |
| 1777386525 | 2.78° C | 95% | 1016.3 hPa | 0 mm | - | - | - |
| 1777386229 | 2.78° C | 95% | 1016.3 hPa | 0 mm | - | - | - |
| 1777385325 | 2.22° C | 95% | 1016.4 hPa | 0 mm | - | - | - |
| 1777384727 | 2.22° C | 95% | 1016.4 hPa | 0 mm | - | - | - |
| 1777384122 | 2.22° C | 95% | 1016.3 hPa | 0 mm | - | - | - |
| 1777380817 | 1.11° C | 94% | 1015.3 hPa | 0 mm | - | - | - |
| 1777379017 | 1.67° C | 94% | 1014.6 hPa | 0 mm | - | - | - |
| 1777378415 | 1.67° C | 94% | 1014.4 hPa | 0 mm | - | - | - |
| 1777378116 | 1.11° C | 94% | 1014.2 hPa | 0 mm | - | - | - |
| 1777377213 | 1.11° C | 94% | 1013.8 hPa | 0 mm | - | - | - |
| 1777376009 | 1.11° C | 93% | 1013.6 hPa | 0 mm | - | - | - |
| 1777375410 | 1.11° C | 93% | 1013.6 hPa | 0 mm | - | - | - |
| 1777374210 | 1.67° C | 93% | 1013.7 hPa | 0 mm | - | - | - |
| 1777370985 | 2.22° C | 89% | 1013.7 hPa | 0 mm | - | - | - |
| 1777370307 | 2.22° C | 87% | 1013.7 hPa | 0 mm | - | - | - |
| 1777369705 | 2.22° C | 86% | 1013.8 hPa | 0 mm | - | - | - |
| 1777366104 | 2.22° C | 90% | 1014.2 hPa | 0 mm | - | - | - |
| 1777364908 | 1.67° C | 90% | 1014.4 hPa | 0 mm | - | - | - |
* Rain latest hour (hover to see other rain measurements)
** Current wind speed in m/s (hover to see current wind gust speed)